sensor_id;sensor_type;location;lat;lon;timestamp;P1;durP1;ratioP1;P2;durP2;ratioP2
66721;SDS011;53633;49.932;10.884;2023-04-01T00:01:03;2.95;;;0.43;;
66721;SDS011;53633;49.932;10.884;2023-04-01T00:03:31;3.40;;;0.50;;
66721;SDS011;53633;49.932;10.884;2023-04-01T00:06:00;4.18;;;0.65;;
66721;SDS011;53633;49.932;10.884;2023-04-01T00:08:28;3.80;;;0.40;;
66721;SDS011;53633;49.932;10.884;2023-04-01T00:10:55;4.15;;;0.40;;
66721;SDS011;53633;49.932;10.884;2023-04-01T00:13:21;5.28;;;0.55;;
66721;SDS011;53633;49.932;10.884;2023-04-01T00:15:48;5.03;;;0.40;;
66721;SDS011;53633;49.932;10.884;2023-04-01T00:18:15;4.25;;;0.40;;
66721;SDS011;53633;49.932;10.884;2023-04-01T00:20:43;7.03;;;0.47;;
66721;SDS011;53633;49.932;10.884;2023-04-01T00:23:12;3.90;;;0.75;;
66721;SDS011;53633;49.932;10.884;2023-04-01T00:25:39;4.88;;;0.50;;
66721;SDS011;53633;49.932;10.884;2023-04-01T00:28:05;4.53;;;0.95;;
66721;SDS011;53633;49.932;10.884;2023-04-01T00:30:32;6.53;;;0.95;;
66721;SDS011;53633;49.932;10.884;2023-04-01T00:32:59;4.30;;;0.50;;
66721;SDS011;53633;49.932;10.884;2023-04-01T00:35:25;5.40;;;0.68;;
66721;SDS011;53633;49.932;10.884;2023-04-01T00:37:52;6.07;;;0.60;;
66721;SDS011;53633;49.932;10.884;2023-04-01T00:40:24;5.43;;;0.70;;
66721;SDS011;53633;49.932;10.884;2023-04-01T00:42:54;5.93;;;0.73;;
66721;SDS011;53633;49.932;10.884;2023-04-01T00:45:26;5.18;;;0.63;;
66721;SDS011;53633;49.932;10.884;2023-04-01T00:47:55;4.60;;;0.50;;
66721;SDS011;53633;49.932;10.884;2023-04-01T00:50:23;4.47;;;0.55;;
66721;SDS011;53633;49.932;10.884;2023-04-01T00:52:52;4.80;;;0.40;;
66721;SDS011;53633;49.932;10.884;2023-04-01T00:55:19;4.20;;;0.50;;
66721;SDS011;53633;49.932;10.884;2023-04-01T00:57:49;4.28;;;0.40;;
66721;SDS011;53633;49.932;10.884;2023-04-01T01:00:18;3.63;;;0.50;;
66721;SDS011;53633;49.932;10.884;2023-04-01T01:02:45;5.47;;;0.45;;
66721;SDS011;53633;49.932;10.884;2023-04-01T01:05:12;4.93;;;0.57;;
66721;SDS011;53633;49.932;10.884;2023-04-01T01:07:42;3.55;;;0.43;;
66721;SDS011;53633;49.932;10.884;2023-04-01T01:10:16;6.22;;;0.60;;
66721;SDS011;53633;49.932;10.884;2023-04-01T01:12:46;3.70;;;0.30;;
66721;SDS011;53633;49.932;10.884;2023-04-01T01:15:24;2.17;;;0.40;;
66721;SDS011;53633;49.932;10.884;2023-04-01T01:17:56;5.13;;;0.50;;
66721;SDS011;53633;49.932;10.884;2023-04-01T01:20:37;2.67;;;0.40;;
66721;SDS011;53633;49.932;10.884;2023-04-01T01:23:33;3.40;;;0.40;;
66721;SDS011;53633;49.932;10.884;2023-04-01T01:26:23;4.88;;;0.40;;
66721;SDS011;53633;49.932;10.884;2023-04-01T01:29:06;4.95;;;0.57;;
66721;SDS011;53633;49.932;10.884;2023-04-01T01:31:43;5.20;;;0.52;;
66721;SDS011;53633;49.932;10.884;2023-04-01T01:34:17;4.13;;;0.60;;
66721;SDS011;53633;49.932;10.884;2023-04-01T01:36:52;4.07;;;0.60;;
66721;SDS011;53633;49.932;10.884;2023-04-01T01:39:22;2.13;;;0.40;;
66721;SDS011;53633;49.932;10.884;2023-04-01T01:41:52;4.40;;;0.50;;
66721;SDS011;53633;49.932;10.884;2023-04-01T01:44:22;3.47;;;0.40;;
66721;SDS011;53633;49.932;10.884;2023-04-01T01:46:50;3.50;;;0.40;;
66721;SDS011;53633;49.932;10.884;2023-04-01T01:49:17;3.67;;;0.40;;
66721;SDS011;53633;49.932;10.884;2023-04-01T01:51:45;4.68;;;0.57;;
66721;SDS011;53633;49.932;10.884;2023-04-01T01:54:13;3.75;;;0.40;;
66721;SDS011;53633;49.932;10.884;2023-04-01T01:56:41;2.67;;;0.50;;
66721;SDS011;53633;49.932;10.884;2023-04-01T01:59:11;3.92;;;0.40;;
66721;SDS011;53633;49.932;10.884;2023-04-01T02:01:39;2.80;;;0.40;;
66721;SDS011;53633;49.932;10.884;2023-04-01T02:04:08;2.83;;;0.40;;
66721;SDS011;53633;49.932;10.884;2023-04-01T02:06:38;4.45;;;0.40;;
66721;SDS011;53633;49.932;10.884;2023-04-01T02:09:07;7.57;;;1.67;;
66721;SDS011;53633;49.932;10.884;2023-04-01T02:11:38;3.72;;;0.50;;
66721;SDS011;53633;49.932;10.884;2023-04-01T02:14:11;3.35;;;0.30;;
66721;SDS011;53633;49.932;10.884;2023-04-01T02:16:43;3.58;;;0.40;;
66721;SDS011;53633;49.932;10.884;2023-04-01T02:19:13;2.35;;;0.30;;
66721;SDS011;53633;49.932;10.884;2023-04-01T02:21:42;1.77;;;0.30;;
66721;SDS011;53633;49.932;10.884;2023-04-01T02:24:11;4.15;;;0.40;;
66721;SDS011;53633;49.932;10.884;2023-04-01T02:26:41;3.38;;;0.30;;
66721;SDS011;53633;49.932;10.884;2023-04-01T02:29:09;5.50;;;0.52;;
66721;SDS011;53633;49.932;10.884;2023-04-01T02:31:38;4.50;;;0.35;;
66721;SDS011;53633;49.932;10.884;2023-04-01T02:34:06;2.78;;;0.60;;
66721;SDS011;53633;49.932;10.884;2023-04-01T02:36:34;3.67;;;0.80;;
66721;SDS011;53633;49.932;10.884;2023-04-01T02:39:02;2.75;;;0.60;;
66721;SDS011;53633;49.932;10.884;2023-04-01T02:41:29;5.10;;;0.47;;
66721;SDS011;53633;49.932;10.884;2023-04-01T02:43:57;3.30;;;0.38;;
66721;SDS011;53633;49.932;10.884;2023-04-01T02:46:23;4.57;;;0.40;;
66721;SDS011;53633;49.932;10.884;2023-04-01T02:48:50;4.65;;;0.60;;
66721;SDS011;53633;49.932;10.884;2023-04-01T02:51:17;2.58;;;0.30;;
66721;SDS011;53633;49.932;10.884;2023-04-01T02:53:43;3.45;;;0.40;;
66721;SDS011;53633;49.932;10.884;2023-04-01T02:56:10;3.92;;;0.40;;
66721;SDS011;53633;49.932;10.884;2023-04-01T02:58:37;4.93;;;0.45;;
66721;SDS011;53633;49.932;10.884;2023-04-01T03:01:04;4.05;;;0.40;;
66721;SDS011;53633;49.932;10.884;2023-04-01T03:03:31;4.80;;;0.40;;
66721;SDS011;53633;49.932;10.884;2023-04-01T03:05:58;6.55;;;0.50;;
66721;SDS011;53633;49.932;10.884;2023-04-01T03:08:30;4.13;;;0.40;;
66721;SDS011;53633;49.932;10.884;2023-04-01T03:10:57;5.78;;;0.40;;
66721;SDS011;53633;49.932;10.884;2023-04-01T03:13:25;4.70;;;0.47;;
66721;SDS011;53633;49.932;10.884;2023-04-01T03:15:52;4.70;;;0.57;;
66721;SDS011;53633;49.932;10.884;2023-04-01T03:18:20;4.18;;;0.40;;
66721;SDS011;53633;49.932;10.884;2023-04-01T03:20:47;3.88;;;0.55;;
66721;SDS011;53633;49.932;10.884;2023-04-01T03:23:14;4.50;;;0.40;;
66721;SDS011;53633;49.932;10.884;2023-04-01T03:25:40;4.60;;;0.57;;
66721;SDS011;53633;49.932;10.884;2023-04-01T03:28:07;4.10;;;0.35;;
66721;SDS011;53633;49.932;10.884;2023-04-01T03:30:34;3.85;;;0.40;;
66721;SDS011;53633;49.932;10.884;2023-04-01T03:33:00;6.32;;;0.50;;
66721;SDS011;53633;49.932;10.884;2023-04-01T03:35:29;3.03;;;0.43;;
66721;SDS011;53633;49.932;10.884;2023-04-01T03:37:56;4.60;;;0.40;;
66721;SDS011;53633;49.932;10.884;2023-04-01T03:40:23;4.32;;;0.40;;
66721;SDS011;53633;49.932;10.884;2023-04-01T03:42:50;2.97;;;0.40;;
66721;SDS011;53633;49.932;10.884;2023-04-01T03:45:17;2.08;;;0.30;;
66721;SDS011;53633;49.932;10.884;2023-04-01T03:47:43;2.50;;;0.40;;
66721;SDS011;53633;49.932;10.884;2023-04-01T03:50:10;6.25;;;0.50;;
66721;SDS011;53633;49.932;10.884;2023-04-01T03:52:38;5.90;;;0.40;;
66721;SDS011;53633;49.932;10.884;2023-04-01T03:55:05;4.72;;;0.45;;
66721;SDS011;53633;49.932;10.884;2023-04-01T03:57:32;5.72;;;0.65;;
66721;SDS011;53633;49.932;10.884;2023-04-01T03:59:59;4.95;;;0.60;;
66721;SDS011;53633;49.932;10.884;2023-04-01T04:02:26;4.25;;;1.10;;
66721;SDS011;53633;49.932;10.884;2023-04-01T04:04:53;6.20;;;1.33;;
66721;SDS011;53633;49.932;10.884;2023-04-01T04:07:19;7.72;;;1.27;;
66721;SDS011;53633;49.932;10.884;2023-04-01T04:09:47;3.60;;;0.55;;
66721;SDS011;53633;49.932;10.884;2023-04-01T04:12:14;5.00;;;0.57;;
66721;SDS011;53633;49.932;10.884;2023-04-01T04:14:41;5.78;;;0.68;;
66721;SDS011;53633;49.932;10.884;2023-04-01T04:17:09;6.50;;;1.05;;
66721;SDS011;53633;49.932;10.884;2023-04-01T04:19:36;4.80;;;0.50;;
66721;SDS011;53633;49.932;10.884;2023-04-01T04:22:03;5.65;;;0.50;;
66721;SDS011;53633;49.932;10.884;2023-04-01T04:24:29;4.13;;;0.40;;
66721;SDS011;53633;49.932;10.884;2023-04-01T04:26:57;3.15;;;0.30;;
66721;SDS011;53633;49.932;10.884;2023-04-01T04:29:24;3.38;;;0.68;;
66721;SDS011;53633;49.932;10.884;2023-04-01T04:31:51;5.53;;;0.40;;
66721;SDS011;53633;49.932;10.884;2023-04-01T04:34:17;6.07;;;0.50;;
66721;SDS011;53633;49.932;10.884;2023-04-01T04:36:44;3.42;;;0.40;;
66721;SDS011;53633;49.932;10.884;2023-04-01T04:39:11;4.57;;;0.40;;
66721;SDS011;53633;49.932;10.884;2023-04-01T04:41:37;5.82;;;0.47;;
66721;SDS011;53633;49.932;10.884;2023-04-01T04:44:05;4.47;;;0.40;;
66721;SDS011;53633;49.932;10.884;2023-04-01T04:46:32;5.95;;;0.43;;
66721;SDS011;53633;49.932;10.884;2023-04-01T04:48:59;4.82;;;0.65;;
66721;SDS011;53633;49.932;10.884;2023-04-01T04:51:25;2.75;;;0.40;;
66721;SDS011;53633;49.932;10.884;2023-04-01T04:53:52;3.97;;;0.43;;
66721;SDS011;53633;49.932;10.884;2023-04-01T04:56:19;4.30;;;0.50;;
66721;SDS011;53633;49.932;10.884;2023-04-01T04:58:47;5.28;;;0.40;;
66721;SDS011;53633;49.932;10.884;2023-04-01T05:01:16;2.85;;;0.60;;
66721;SDS011;53633;49.932;10.884;2023-04-01T05:03:44;4.22;;;0.40;;
66721;SDS011;53633;49.932;10.884;2023-04-01T05:06:12;5.28;;;0.52;;
66721;SDS011;53633;49.932;10.884;2023-04-01T05:08:40;2.60;;;0.40;;
66721;SDS011;53633;49.932;10.884;2023-04-01T05:11:07;4.32;;;0.30;;
66721;SDS011;53633;49.932;10.884;2023-04-01T05:13:39;3.10;;;0.50;;
66721;SDS011;53633;49.932;10.884;2023-04-01T05:16:07;4.82;;;0.40;;
66721;SDS011;53633;49.932;10.884;2023-04-01T05:18:35;2.00;;;0.50;;
66721;SDS011;53633;49.932;10.884;2023-04-01T05:21:02;1.60;;;0.30;;
66721;SDS011;53633;49.932;10.884;2023-04-01T05:23:30;3.00;;;0.38;;
66721;SDS011;53633;49.932;10.884;2023-04-01T05:25:57;3.90;;;0.43;;
66721;SDS011;53633;49.932;10.884;2023-04-01T05:28:24;4.80;;;0.40;;
66721;SDS011;53633;49.932;10.884;2023-04-01T05:30:50;4.15;;;0.50;;
66721;SDS011;53633;49.932;10.884;2023-04-01T05:33:17;2.78;;;0.50;;
66721;SDS011;53633;49.932;10.884;2023-04-01T05:35:45;3.05;;;0.47;;
66721;SDS011;53633;49.932;10.884;2023-04-01T05:38:12;2.75;;;0.50;;
66721;SDS011;53633;49.932;10.884;2023-04-01T05:40:39;5.35;;;0.70;;
66721;SDS011;53633;49.932;10.884;2023-04-01T05:43:06;3.40;;;0.40;;
66721;SDS011;53633;49.932;10.884;2023-04-01T05:45:32;4.28;;;0.50;;
66721;SDS011;53633;49.932;10.884;2023-04-01T05:48:00;3.08;;;0.50;;
66721;SDS011;53633;49.932;10.884;2023-04-01T05:50:27;6.63;;;0.70;;
66721;SDS011;53633;49.932;10.884;2023-04-01T05:52:55;5.60;;;0.65;;
66721;SDS011;53633;49.932;10.884;2023-04-01T05:55:22;4.20;;;0.50;;
66721;SDS011;53633;49.932;10.884;2023-04-01T05:57:48;3.28;;;0.38;;
66721;SDS011;53633;49.932;10.884;2023-04-01T06:00:15;4.50;;;0.45;;
66721;SDS011;53633;49.932;10.884;2023-04-01T06:02:43;4.95;;;0.77;;
66721;SDS011;53633;49.932;10.884;2023-04-01T06:05:12;3.60;;;0.45;;
66721;SDS011;53633;49.932;10.884;2023-04-01T06:07:42;1.30;;;0.30;;
66721;SDS011;53633;49.932;10.884;2023-04-01T06:10:11;3.75;;;0.50;;
66721;SDS011;53633;49.932;10.884;2023-04-01T06:12:40;3.88;;;0.50;;
66721;SDS011;53633;49.932;10.884;2023-04-01T06:15:25;3.15;;;0.40;;
66721;SDS011;53633;49.932;10.884;2023-04-01T06:18:11;3.28;;;0.32;;
66721;SDS011;53633;49.932;10.884;2023-04-01T06:21:00;3.80;;;0.45;;
66721;SDS011;53633;49.932;10.884;2023-04-01T06:23:38;1.90;;;0.40;;
66721;SDS011;53633;49.932;10.884;2023-04-01T06:26:24;2.40;;;0.30;;
66721;SDS011;53633;49.932;10.884;2023-04-01T06:29:08;6.60;;;0.40;;
66721;SDS011;53633;49.932;10.884;2023-04-01T06:31:57;3.45;;;0.40;;
66721;SDS011;53633;49.932;10.884;2023-04-01T06:34:50;2.55;;;0.45;;
66721;SDS011;53633;49.932;10.884;2023-04-01T06:37:31;3.33;;;0.55;;
66721;SDS011;53633;49.932;10.884;2023-04-01T06:43:09;3.22;;;0.32;;
66721;SDS011;53633;49.932;10.884;2023-04-01T06:45:45;4.65;;;0.57;;
66721;SDS011;53633;49.932;10.884;2023-04-01T06:48:20;2.75;;;0.45;;
66721;SDS011;53633;49.932;10.884;2023-04-01T06:50:58;1.73;;;0.43;;
66721;SDS011;53633;49.932;10.884;2023-04-01T06:53:35;3.70;;;0.45;;
66721;SDS011;53633;49.932;10.884;2023-04-01T06:56:09;5.70;;;1.00;;
66721;SDS011;53633;49.932;10.884;2023-04-01T06:58:41;2.65;;;0.60;;
66721;SDS011;53633;49.932;10.884;2023-04-01T07:01:10;5.32;;;0.90;;
66721;SDS011;53633;49.932;10.884;2023-04-01T07:03:43;6.05;;;0.60;;
66721;SDS011;53633;49.932;10.884;2023-04-01T07:06:16;5.32;;;0.70;;
66721;SDS011;53633;49.932;10.884;2023-04-01T07:08:50;3.60;;;0.50;;
66721;SDS011;53633;49.932;10.884;2023-04-01T07:11:21;5.05;;;0.50;;
66721;SDS011;53633;49.932;10.884;2023-04-01T07:13:52;3.85;;;0.40;;
66721;SDS011;53633;49.932;10.884;2023-04-01T07:16:23;3.42;;;0.52;;
66721;SDS011;53633;49.932;10.884;2023-04-01T07:18:54;4.80;;;0.68;;
66721;SDS011;53633;49.932;10.884;2023-04-01T07:21:25;3.75;;;0.60;;
66721;SDS011;53633;49.932;10.884;2023-04-01T07:23:59;4.00;;;0.30;;
66721;SDS011;53633;49.932;10.884;2023-04-01T07:26:29;2.95;;;0.40;;
66721;SDS011;53633;49.932;10.884;2023-04-01T07:28:57;3.53;;;0.32;;
66721;SDS011;53633;49.932;10.884;2023-04-01T07:31:33;4.15;;;0.40;;
66721;SDS011;53633;49.932;10.884;2023-04-01T07:34:12;4.28;;;0.60;;
66721;SDS011;53633;49.932;10.884;2023-04-01T07:36:48;2.92;;;0.50;;
66721;SDS011;53633;49.932;10.884;2023-04-01T07:39:24;5.63;;;0.60;;
66721;SDS011;53633;49.932;10.884;2023-04-01T07:42:00;3.35;;;0.45;;
66721;SDS011;53633;49.932;10.884;2023-04-01T07:44:33;5.45;;;0.40;;
66721;SDS011;53633;49.932;10.884;2023-04-01T07:47:11;3.17;;;0.40;;
66721;SDS011;53633;49.932;10.884;2023-04-01T07:50:00;4.97;;;0.50;;
66721;SDS011;53633;49.932;10.884;2023-04-01T07:52:35;3.28;;;0.50;;
66721;SDS011;53633;49.932;10.884;2023-04-01T07:55:12;4.15;;;0.40;;
66721;SDS011;53633;49.932;10.884;2023-04-01T07:57:47;5.03;;;0.80;;
66721;SDS011;53633;49.932;10.884;2023-04-01T08:00:21;5.35;;;0.50;;
66721;SDS011;53633;49.932;10.884;2023-04-01T08:02:54;5.85;;;0.52;;
66721;SDS011;53633;49.932;10.884;2023-04-01T08:05:33;3.15;;;0.30;;
66721;SDS011;53633;49.932;10.884;2023-04-01T08:08:11;5.13;;;0.40;;
66721;SDS011;53633;49.932;10.884;2023-04-01T08:10:46;4.43;;;0.40;;
66721;SDS011;53633;49.932;10.884;2023-04-01T08:13:20;5.50;;;0.50;;
66721;SDS011;53633;49.932;10.884;2023-04-01T08:15:57;3.97;;;0.55;;
66721;SDS011;53633;49.932;10.884;2023-04-01T08:18:36;4.70;;;0.68;;
66721;SDS011;53633;49.932;10.884;2023-04-01T08:21:08;4.85;;;0.50;;
66721;SDS011;53633;49.932;10.884;2023-04-01T08:23:40;5.88;;;0.50;;
66721;SDS011;53633;49.932;10.884;2023-04-01T08:26:10;3.38;;;0.50;;
66721;SDS011;53633;49.932;10.884;2023-04-01T08:28:43;4.32;;;0.73;;
66721;SDS011;53633;49.932;10.884;2023-04-01T08:31:16;3.72;;;0.52;;
66721;SDS011;53633;49.932;10.884;2023-04-01T08:33:46;3.53;;;0.40;;
66721;SDS011;53633;49.932;10.884;2023-04-01T08:36:15;3.58;;;0.50;;
66721;SDS011;53633;49.932;10.884;2023-04-01T08:38:46;2.33;;;0.40;;
66721;SDS011;53633;49.932;10.884;2023-04-01T08:44:36;4.07;;;0.50;;
66721;SDS011;53633;49.932;10.884;2023-04-01T08:47:29;3.60;;;0.40;;
66721;SDS011;53633;49.932;10.884;2023-04-01T08:53:12;3.15;;;0.57;;
66721;SDS011;53633;49.932;10.884;2023-04-01T08:55:51;4.53;;;0.40;;
66721;SDS011;53633;49.932;10.884;2023-04-01T09:01:28;4.57;;;0.50;;
66721;SDS011;53633;49.932;10.884;2023-04-01T09:04:16;3.22;;;0.40;;
66721;SDS011;53633;49.932;10.884;2023-04-01T09:06:52;3.45;;;0.60;;
66721;SDS011;53633;49.932;10.884;2023-04-01T09:09:43;3.58;;;0.40;;
66721;SDS011;53633;49.932;10.884;2023-04-01T09:21:24;3.40;;;0.70;;
66721;SDS011;53633;49.932;10.884;2023-04-01T09:27:02;4.28;;;0.40;;
66721;SDS011;53633;49.932;10.884;2023-04-01T09:29:36;1.52;;;0.40;;
66721;SDS011;53633;49.932;10.884;2023-04-01T09:35:23;1.30;;;0.30;;
66721;SDS011;53633;49.932;10.884;2023-04-01T09:38:00;1.95;;;0.40;;
66721;SDS011;53633;49.932;10.884;2023-04-01T09:40:40;1.10;;;0.30;;
66721;SDS011;53633;49.932;10.884;2023-04-01T09:43:25;4.00;;;0.40;;
66721;SDS011;53633;49.932;10.884;2023-04-01T09:45:58;2.30;;;0.60;;
66721;SDS011;53633;49.932;10.884;2023-04-01T09:48:41;3.70;;;0.82;;
66721;SDS011;53633;49.932;10.884;2023-04-01T09:51:22;1.90;;;0.30;;
66721;SDS011;53633;49.932;10.884;2023-04-01T09:54:01;1.95;;;0.30;;
66721;SDS011;53633;49.932;10.884;2023-04-01T09:59:57;2.55;;;0.52;;
66721;SDS011;53633;49.932;10.884;2023-04-01T10:03:01;1.98;;;0.43;;
66721;SDS011;53633;49.932;10.884;2023-04-01T10:15:29;1.90;;;0.38;;
66721;SDS011;53633;49.932;10.884;2023-04-01T10:21:47;1.60;;;0.43;;
66721;SDS011;53633;49.932;10.884;2023-04-01T10:24:31;1.95;;;0.35;;
66721;SDS011;53633;49.932;10.884;2023-04-01T10:27:28;2.13;;;0.30;;
66721;SDS011;53633;49.932;10.884;2023-04-01T10:30:35;1.33;;;0.30;;
66721;SDS011;53633;49.932;10.884;2023-04-01T10:33:19;3.33;;;0.50;;
66721;SDS011;53633;49.932;10.884;2023-04-01T10:36:24;2.42;;;0.47;;
66721;SDS011;53633;49.932;10.884;2023-04-01T10:51:53;2.03;;;0.30;;
66721;SDS011;53633;49.932;10.884;2023-04-01T10:54:47;2.17;;;0.40;;
66721;SDS011;53633;49.932;10.884;2023-04-01T10:57:32;3.80;;;0.40;;
66721;SDS011;53633;49.932;10.884;2023-04-01T11:00:23;2.55;;;0.30;;
66721;SDS011;53633;49.932;10.884;2023-04-01T11:06:34;1.48;;;0.30;;
66721;SDS011;53633;49.932;10.884;2023-04-01T11:12:24;2.58;;;0.43;;
66721;SDS011;53633;49.932;10.884;2023-04-01T11:15:17;2.30;;;0.30;;
66721;SDS011;53633;49.932;10.884;2023-04-01T11:18:17;1.73;;;0.40;;
66721;SDS011;53633;49.932;10.884;2023-04-01T11:24:21;2.03;;;0.30;;
66721;SDS011;53633;49.932;10.884;2023-04-01T11:27:08;2.20;;;0.30;;
66721;SDS011;53633;49.932;10.884;2023-04-01T11:30:02;1.35;;;0.30;;
66721;SDS011;53633;49.932;10.884;2023-04-01T11:32:49;1.85;;;0.30;;
66721;SDS011;53633;49.932;10.884;2023-04-01T11:35:24;2.90;;;0.30;;
66721;SDS011;53633;49.932;10.884;2023-04-01T11:38:01;1.23;;;0.30;;
66721;SDS011;53633;49.932;10.884;2023-04-01T11:40:37;3.95;;;0.30;;
66721;SDS011;53633;49.932;10.884;2023-04-01T11:43:12;3.67;;;0.60;;
66721;SDS011;53633;49.932;10.884;2023-04-01T11:45:59;4.45;;;0.60;;
66721;SDS011;53633;49.932;10.884;2023-04-01T11:48:38;1.23;;;0.30;;
66721;SDS011;53633;49.932;10.884;2023-04-01T11:51:21;1.35;;;0.30;;
66721;SDS011;53633;49.932;10.884;2023-04-01T11:54:23;2.80;;;0.30;;
66721;SDS011;53633;49.932;10.884;2023-04-01T11:57:06;1.63;;;0.30;;
66721;SDS011;53633;49.932;10.884;2023-04-01T11:59:50;2.35;;;0.35;;
66721;SDS011;53633;49.932;10.884;2023-04-01T12:02:25;1.50;;;0.30;;
66721;SDS011;53633;49.932;10.884;2023-04-01T12:07:57;2.75;;;0.40;;
66721;SDS011;53633;49.932;10.884;2023-04-01T12:10:38;2.63;;;0.30;;
66721;SDS011;53633;49.932;10.884;2023-04-01T12:13:11;2.53;;;0.43;;
66721;SDS011;53633;49.932;10.884;2023-04-01T12:15:54;3.05;;;0.60;;
66721;SDS011;53633;49.932;10.884;2023-04-01T12:18:32;2.28;;;0.45;;
66721;SDS011;53633;49.932;10.884;2023-04-01T12:21:09;1.85;;;0.40;;
66721;SDS011;53633;49.932;10.884;2023-04-01T12:23:50;1.75;;;0.40;;
66721;SDS011;53633;49.932;10.884;2023-04-01T12:29:47;2.65;;;0.60;;
66721;SDS011;53633;49.932;10.884;2023-04-01T12:32:25;2.50;;;0.60;;
66721;SDS011;53633;49.932;10.884;2023-04-01T12:35:03;2.55;;;0.70;;
66721;SDS011;53633;49.932;10.884;2023-04-01T12:37:52;1.95;;;0.40;;
66721;SDS011;53633;49.932;10.884;2023-04-01T12:40:37;1.70;;;0.40;;
66721;SDS011;53633;49.932;10.884;2023-04-01T12:43:17;3.33;;;0.50;;
66721;SDS011;53633;49.932;10.884;2023-04-01T12:46:07;2.33;;;0.60;;
66721;SDS011;53633;49.932;10.884;2023-04-01T12:51:42;2.42;;;0.50;;
66721;SDS011;53633;49.932;10.884;2023-04-01T12:54:42;3.10;;;0.70;;
66721;SDS011;53633;49.932;10.884;2023-04-01T13:03:21;3.83;;;0.80;;
66721;SDS011;53633;49.932;10.884;2023-04-01T13:06:16;5.03;;;1.58;;
66721;SDS011;53633;49.932;10.884;2023-04-01T13:08:52;3.28;;;0.70;;
66721;SDS011;53633;49.932;10.884;2023-04-01T13:11:30;3.92;;;0.50;;
66721;SDS011;53633;49.932;10.884;2023-04-01T13:17:12;5.20;;;1.40;;
66721;SDS011;53633;49.932;10.884;2023-04-01T13:19:46;16.52;;;5.25;;
66721;SDS011;53633;49.932;10.884;2023-04-01T13:22:34;11.40;;;3.08;;
66721;SDS011;53633;49.932;10.884;2023-04-01T13:25:13;6.22;;;1.65;;
66721;SDS011;53633;49.932;10.884;2023-04-01T13:27:51;7.35;;;2.42;;
66721;SDS011;53633;49.932;10.884;2023-04-01T13:30:24;4.05;;;0.70;;
66721;SDS011;53633;49.932;10.884;2023-04-01T13:32:56;1.58;;;0.40;;
66721;SDS011;53633;49.932;10.884;2023-04-01T13:35:31;1.88;;;0.60;;
66721;SDS011;53633;49.932;10.884;2023-04-01T13:38:18;3.15;;;0.77;;
66721;SDS011;53633;49.932;10.884;2023-04-01T13:41:12;4.15;;;0.80;;
66721;SDS011;53633;49.932;10.884;2023-04-01T13:43:49;3.67;;;0.93;;
66721;SDS011;53633;49.932;10.884;2023-04-01T13:46:23;2.70;;;0.60;;
66721;SDS011;53633;49.932;10.884;2023-04-01T13:52:24;4.88;;;1.25;;
66721;SDS011;53633;49.932;10.884;2023-04-01T13:55:30;3.22;;;0.90;;
66721;SDS011;53633;49.932;10.884;2023-04-01T14:01:06;3.72;;;0.80;;
66721;SDS011;53633;49.932;10.884;2023-04-01T14:03:43;3.70;;;1.05;;
66721;SDS011;53633;49.932;10.884;2023-04-01T14:06:31;1.92;;;0.50;;
66721;SDS011;53633;49.932;10.884;2023-04-01T14:09:10;2.45;;;0.50;;
66721;SDS011;53633;49.932;10.884;2023-04-01T14:11:45;4.32;;;1.30;;
66721;SDS011;53633;49.932;10.884;2023-04-01T14:14:21;4.22;;;1.05;;
66721;SDS011;53633;49.932;10.884;2023-04-01T14:17:03;3.55;;;0.95;;
66721;SDS011;53633;49.932;10.884;2023-04-01T14:19:43;13.05;;;3.28;;
66721;SDS011;53633;49.932;10.884;2023-04-01T14:22:20;17.52;;;3.75;;
66721;SDS011;53633;49.932;10.884;2023-04-01T14:25:03;9.70;;;2.00;;
66721;SDS011;53633;49.932;10.884;2023-04-01T14:27:47;16.67;;;3.42;;
66721;SDS011;53633;49.932;10.884;2023-04-01T14:30:24;8.48;;;2.00;;
66721;SDS011;53633;49.932;10.884;2023-04-01T14:33:03;4.70;;;1.30;;
66721;SDS011;53633;49.932;10.884;2023-04-01T14:35:41;5.40;;;1.70;;
66721;SDS011;53633;49.932;10.884;2023-04-01T14:38:23;9.30;;;2.05;;
66721;SDS011;53633;49.932;10.884;2023-04-01T14:41:05;2.10;;;0.63;;
66721;SDS011;53633;49.932;10.884;2023-04-01T14:46:55;2.80;;;0.68;;
66721;SDS011;53633;49.932;10.884;2023-04-01T14:49:39;2.22;;;0.60;;
66721;SDS011;53633;49.932;10.884;2023-04-01T14:52:10;1.92;;;0.50;;
66721;SDS011;53633;49.932;10.884;2023-04-01T14:54:42;3.03;;;0.70;;
66721;SDS011;53633;49.932;10.884;2023-04-01T14:57:12;2.28;;;0.65;;
66721;SDS011;53633;49.932;10.884;2023-04-01T14:59:45;2.75;;;0.60;;
66721;SDS011;53633;49.932;10.884;2023-04-01T15:02:26;3.75;;;0.73;;
66721;SDS011;53633;49.932;10.884;2023-04-01T15:05:15;3.50;;;0.80;;
66721;SDS011;53633;49.932;10.884;2023-04-01T15:11:00;2.40;;;0.73;;
66721;SDS011;53633;49.932;10.884;2023-04-01T15:16:33;3.15;;;0.90;;
66721;SDS011;53633;49.932;10.884;2023-04-01T15:19:09;2.63;;;0.73;;
66721;SDS011;53633;49.932;10.884;2023-04-01T15:21:59;2.55;;;0.60;;
66721;SDS011;53633;49.932;10.884;2023-04-01T15:24:46;2.42;;;0.70;;
66721;SDS011;53633;49.932;10.884;2023-04-01T15:27:33;3.40;;;0.70;;
66721;SDS011;53633;49.932;10.884;2023-04-01T15:33:00;3.03;;;0.60;;
66721;SDS011;53633;49.932;10.884;2023-04-01T15:35:43;1.52;;;0.40;;
66721;SDS011;53633;49.932;10.884;2023-04-01T15:38:19;1.63;;;0.50;;
66721;SDS011;53633;49.932;10.884;2023-04-01T15:40:54;2.42;;;0.55;;
66721;SDS011;53633;49.932;10.884;2023-04-01T15:43:31;2.10;;;0.50;;
66721;SDS011;53633;49.932;10.884;2023-04-01T15:46:09;2.17;;;0.43;;
66721;SDS011;53633;49.932;10.884;2023-04-01T15:49:02;1.88;;;0.40;;
66721;SDS011;53633;49.932;10.884;2023-04-01T15:51:37;2.30;;;0.40;;
66721;SDS011;53633;49.932;10.884;2023-04-01T15:54:24;3.15;;;0.88;;
66721;SDS011;53633;49.932;10.884;2023-04-01T15:56:59;2.55;;;0.70;;
66721;SDS011;53633;49.932;10.884;2023-04-01T15:59:44;5.50;;;0.80;;
66721;SDS011;53633;49.932;10.884;2023-04-01T16:02:21;2.08;;;0.60;;
66721;SDS011;53633;49.932;10.884;2023-04-01T16:04:54;1.95;;;0.50;;
66721;SDS011;53633;49.932;10.884;2023-04-01T16:10:34;3.53;;;1.30;;
66721;SDS011;53633;49.932;10.884;2023-04-01T16:13:17;3.75;;;0.90;;
66721;SDS011;53633;49.932;10.884;2023-04-01T16:16:07;4.80;;;1.20;;
66721;SDS011;53633;49.932;10.884;2023-04-01T16:18:45;1.98;;;0.50;;
66721;SDS011;53633;49.932;10.884;2023-04-01T16:21:27;6.65;;;1.50;;
66721;SDS011;53633;49.932;10.884;2023-04-01T16:24:04;4.25;;;1.30;;
66721;SDS011;53633;49.932;10.884;2023-04-01T16:26:43;3.92;;;1.42;;
66721;SDS011;53633;49.932;10.884;2023-04-01T16:29:17;4.45;;;1.00;;
66721;SDS011;53633;49.932;10.884;2023-04-01T16:31:50;2.85;;;0.65;;
66721;SDS011;53633;49.932;10.884;2023-04-01T16:34:24;1.95;;;0.50;;
66721;SDS011;53633;49.932;10.884;2023-04-01T16:36:59;2.80;;;0.60;;
66721;SDS011;53633;49.932;10.884;2023-04-01T16:39:33;5.60;;;1.30;;
66721;SDS011;53633;49.932;10.884;2023-04-01T16:42:17;3.38;;;0.95;;
66721;SDS011;53633;49.932;10.884;2023-04-01T16:44:53;11.02;;;3.97;;
66721;SDS011;53633;49.932;10.884;2023-04-01T16:47:23;7.88;;;2.55;;
66721;SDS011;53633;49.932;10.884;2023-04-01T16:49:56;8.75;;;2.50;;
66721;SDS011;53633;49.932;10.884;2023-04-01T16:52:30;3.05;;;0.90;;
66721;SDS011;53633;49.932;10.884;2023-04-01T16:55:04;2.88;;;0.90;;
66721;SDS011;53633;49.932;10.884;2023-04-01T16:57:45;2.50;;;0.80;;
66721;SDS011;53633;49.932;10.884;2023-04-01T17:00:16;3.75;;;0.80;;
66721;SDS011;53633;49.932;10.884;2023-04-01T17:02:52;2.70;;;0.47;;
66721;SDS011;53633;49.932;10.884;2023-04-01T17:05:35;3.05;;;0.80;;